首页
METAR-TAF:

METAR-TAF

机场 :

因斯布魯克機場

因斯布鲁克, 奥地利

纬度: 47-16N, 经度: 011-21E, 海拔: 581米

当前天气观测

该预报发布于29分钟前的08:50 UTC
风速3节,风向西南,在西转西北之间变化
温度 11°C
湿度 76%
气压 1019 hPa
能见度10公里或以上
1500米以下无云,无积雨云

METAR: LOWI 170850Z 23003KT 170V290 CAVOK 11/07 Q1019 NOSIG

时间: 11:19 (09:19 UTC)

预报

该预报发布于4小时和4分钟前的05:15 UTC
预报有效从17日的 06点(UTC)到 18日的 06点(UTC)
风速5节,风向西
能见度10公里或以上
1500米以下无云,无积雨云
成为
从 17日的 09点(UTC)到 17日的 11点(UTC)
风速6节,风向
短暂存在
从 17日的 11点(UTC)到 17日的 18点(UTC)
风速15节,风向东南,有时为25节阵风
成为
从 17日的 18点(UTC)到 17日的 20点(UTC)
风速7节,风向西

TAF: LOWI 170515Z 1706/1806 27005KT CAVOK TX19/1714Z TN06/1706Z BECMG 1709/1711 09006KT TEMPO 1711/1718 13015G25KT BECMG 1718/1720 27007KT

超过4000个机场的气象观测和天气预报(METAR&TAF报告)。

可查询的气象台以黄色和红色小点在地图上表示。

将鼠标移到小点上方,可查看气象台名称。

然后点击查看天气观测和预报。

如需切换地图:点击带黑十字的绿色按钮放大地图;点击带横线的绿色按钮缩小地图;或者点击绿色箭头查看邻近地区的地图。


METAR-TAF: